Погода Рахимьяр-Ханна 2 недели

Пенджаб, Пакистан

21 июля-03 августа
  • 21июля
    Сегодня
    +31°
    +42°
    Практически безоблачно
    ВремяПогодаТемператураВлажностьДавлениеВетер, м/сВероятность осадков
    02:00Небольшая облачность+29°C91 %741 мм1.0 м/с31 %
    05:00Ясно и безоблачно+30°C92 %741 мм0.9 м/с2 %
    08:00Ясно и безоблачно+32°C78 %742 мм2.0 м/с2 %
    11:00Ясно и безоблачно+38°C48 %742 мм2.1 м/с2 %
    14:00Практически безоблачно+42°C39 %740 мм1.5 м/с2 %
    17:00Небольшая облачность+40°C39 %739 мм2.0 м/с9 %
    20:00Облачно с прояснениями+34°C67 %741 мм3.4 м/с19 %
    23:00Ясно и безоблачно+32°C68 %741 мм3.9 м/с2 %
  • 22июля
    Понедельник
    +31°
    +44°
    Практически безоблачно
    ВремяПогодаТемператураВлажностьДавлениеВетер, м/сВероятность осадков
    02:00Практически безоблачно+32°C66 %740 мм2.6 м/с2 %
    05:00Ясно и безоблачно+31°C68 %741 мм2.1 м/с2 %
    08:00Ясно и безоблачно+34°C61 %742 мм3.7 м/с1 %
    11:00Ясно и безоблачно+39°C49 %741 мм3.5 м/с2 %
    14:00Практически безоблачно+41°C41 %739 мм2.8 м/с2 %
    17:00Небольшая облачность, ливень+40°C42 %740 мм6.2 м/с24 %
    20:00Облачно с прояснениями+35°C61 %740 мм4.8 м/с12 %
    23:00Небольшая облачность+32°C70 %740 мм4.6 м/с3 %
  • 23июля
    Вторник
    +29°
    +43°
    Небольшая облачность
    ВремяПогодаТемператураВлажностьДавлениеВетер, м/сВероятность осадков
    02:00Ясно и безоблачно+31°C71 %739 мм5.1 м/с2 %
    05:00Облачно с прояснениями+30°C83 %739 мм4.2 м/с2 %
    08:00Облачно с прояснениями+32°C77 %740 мм4.5 м/с2 %
    11:00Облачно с прояснениями+36°C61 %740 мм3.5 м/с2 %
    14:00Небольшая облачность+39°C47 %738 мм3.9 м/с2 %
    17:00Практически безоблачно+40°C42 %736 мм3.6 м/с2 %
    20:00Облачно с прояснениями+35°C52 %737 мм3.0 м/с2 %
    23:00Облачно с прояснениями+33°C57 %738 мм6.5 м/с2 %
  • 24июля
    Среда
    +29°
    +42°
    Ясно и безоблачно
    ВремяПогодаТемператураВлажностьДавлениеВетер, м/сВероятность осадков
    02:00Практически безоблачно+31°C70 %737 мм7.1 м/с2 %
    05:00Ясно и безоблачно+29°C77 %737 мм5.2 м/с2 %
    08:00Ясно и безоблачно+31°C73 %738 мм4.1 м/с2 %
    11:00Ясно и безоблачно+36°C55 %738 мм4.0 м/с2 %
    14:00Ясно и безоблачно+39°C43 %736 мм3.9 м/с2 %
    17:00Ясно и безоблачно+39°C37 %735 мм4.7 м/с2 %
    20:00Ясно и безоблачно+35°C45 %736 мм4.7 м/с3 %
    23:00Ясно и безоблачно+34°C47 %737 мм6.4 м/с2 %
  • 25июля
    Четверг
    +30°
    +41°
    Небольшая облачность
    ВремяПогодаТемператураВлажностьДавлениеВетер, м/сВероятность осадков
    02:00Ясно и безоблачно+31°C61 %737 мм6.1 м/с2 %
    05:00Небольшая облачность+30°C68 %737 мм4.6 м/с2 %
    08:00Ясно и безоблачно+31°C69 %738 мм3.6 м/с2 %
    11:00Ясно и безоблачно+37°C57 %738 мм2.7 м/с2 %
    14:00Небольшая облачность+39°C49 %736 мм2.4 м/с2 %
    17:00Ясно и безоблачно+39°C45 %735 мм2.7 м/с5 %
    20:00Небольшая облачность+31°C89 %736 мм2.7 м/с12 %
    23:00Небольшая облачность+30°C91 %737 мм4.1 м/с8 %
Мы используем cookies
Соглашаюсь